createdAt,value
2024-02-24T00:01:12.560Z,99064.84
2024-02-24T00:04:14.976Z,99067.19
2024-02-24T00:07:17.170Z,99063.28
2024-02-24T00:10:19.641Z,99065.56
2024-02-24T00:13:21.714Z,99073.44
2024-02-24T00:16:24.098Z,99060.94
2024-02-24T00:19:26.389Z,99052.25
2024-02-24T00:22:29.468Z,99051.06
2024-02-24T00:25:31.634Z,99060.06
2024-02-24T00:28:33.978Z,99070.66
2024-02-24T00:31:36.312Z,99057.63
2024-02-24T00:34:38.971Z,99071.06
2024-02-24T00:37:41.336Z,99067.91
2024-02-24T00:40:44.098Z,99070.25
2024-02-24T00:43:46.383Z,99066.69
2024-02-24T00:46:48.791Z,99065.56
2024-02-24T00:49:50.877Z,99065.56
2024-02-24T00:52:53.223Z,99063.63
2024-02-24T00:55:55.356Z,99063.19
2024-02-24T00:58:58.061Z,99068.72
2024-02-24T01:02:00.184Z,99071.81
2024-02-24T01:05:02.607Z,99070.25
2024-02-24T01:08:04.971Z,99063.13
2024-02-24T01:11:08.516Z,99053.25
2024-02-24T01:14:10.815Z,99047.34
2024-02-24T01:17:14.763Z,99049.69
2024-02-24T01:20:17.358Z,99054.34
2024-02-24T01:23:19.910Z,99044.16
2024-02-24T01:26:23.056Z,99052.44
2024-02-24T01:29:25.547Z,99051.59
2024-02-24T01:32:27.808Z,99050.38
2024-02-24T01:35:30.221Z,99044.88
2024-02-24T01:38:32.350Z,99051.91
2024-02-24T01:41:34.744Z,99045.59
2024-02-24T01:44:36.873Z,99043.59
2024-02-24T01:47:39.720Z,99035.31
2024-02-24T01:50:41.999Z,99039.69
2024-02-24T01:53:44.937Z,99037.72
2024-02-24T01:56:47.620Z,99041.28
2024-02-24T01:59:50.446Z,99047.94
2024-02-24T02:02:53.422Z,99042.44
2024-02-24T02:05:55.869Z,99053.06
2024-02-24T02:08:58.026Z,99045.59
2024-02-24T02:12:03.695Z,99043.28
2024-02-24T02:15:06.948Z,99044.03
2024-02-24T02:18:09.517Z,99053.03
2024-02-24T02:21:12.268Z,99053.50
2024-02-24T02:24:16.456Z,99060.91
2024-02-24T02:27:18.699Z,99061.53
2024-02-24T02:30:21.125Z,99062.41
2024-02-24T02:33:23.484Z,99069.56
2024-02-24T02:36:26.578Z,99060.06
2024-02-24T02:39:28.888Z,99054.75
2024-02-24T02:42:31.251Z,99071.13
2024-02-24T02:45:33.825Z,99073.47
2024-02-24T02:48:36.329Z,99089.94
2024-02-24T02:51:38.587Z,99090.31
2024-02-24T02:54:41.071Z,99104.09
2024-02-24T02:57:43.139Z,99099.31
2024-02-24T03:00:48.327Z,99097.28
2024-02-24T03:03:50.612Z,99101.91
2024-02-24T03:06:53.149Z,99112.91
2024-02-24T03:09:55.225Z,99106.59
2024-02-24T03:12:58.538Z,99112.16
2024-02-24T03:16:00.916Z,99120.78
2024-02-24T03:19:03.822Z,99132.66
2024-02-24T03:22:06.023Z,99135.22
2024-02-24T03:25:09.111Z,99147.75
2024-02-24T03:28:11.380Z,99151.66
2024-02-24T03:31:13.782Z,99167.31
2024-02-24T03:34:15.897Z,99168.44
2024-02-24T03:37:18.258Z,99176.19
2024-02-24T03:40:20.377Z,99174.09
2024-02-24T03:43:22.839Z,99188.16
2024-02-24T03:46:24.922Z,99175.72
2024-02-24T03:49:27.338Z,99174.28
2024-02-24T03:52:29.437Z,99167.06
2024-02-24T03:55:31.836Z,99166.47
2024-02-24T03:58:33.996Z,99175.75
2024-02-24T04:01:36.469Z,99170.09
2024-02-24T04:04:38.855Z,99178.00
2024-02-24T04:07:40.924Z,99182.28
2024-02-24T04:10:44.569Z,99185.44
2024-02-24T04:13:46.734Z,99188.78
2024-02-24T04:16:49.139Z,99188.34
2024-02-24T04:19:51.274Z,99178.00
2024-02-24T04:22:53.692Z,99187.31
2024-02-24T04:25:55.862Z,99192.09
2024-02-24T04:28:58.289Z,99191.22
2024-02-24T04:32:00.453Z,99197.69
2024-02-24T04:35:03.022Z,99191.94
2024-02-24T04:38:07.943Z,99192.81
2024-02-24T04:41:10.573Z,99191.94
2024-02-24T04:44:13.258Z,99188.31
2024-02-24T04:47:15.740Z,99192.59
2024-02-24T04:50:17.976Z,99186.28
2024-02-24T04:53:20.478Z,99206.00
2024-02-24T04:56:22.688Z,99193.31
2024-02-24T04:59:25.096Z,99191.63
2024-02-24T05:02:27.238Z,99196.72
2024-02-24T05:05:29.643Z,99189.16
2024-02-24T05:08:31.930Z,99191.50
2024-02-24T05:11:34.521Z,99194.25
2024-02-24T05:14:39.064Z,99197.00
2024-02-24T05:17:41.673Z,99190.59
2024-02-24T05:20:44.002Z,99200.00
2024-02-24T05:23:46.473Z,99191.31
2024-02-24T05:26:48.717Z,99203.19
2024-02-24T05:29:51.246Z,99215.09
2024-02-24T05:32:57.464Z,99229.66
2024-02-24T05:36:01.181Z,99219.38
2024-02-24T05:39:05.314Z,99229.13
2024-02-24T05:42:07.843Z,99236.16
2024-02-24T05:45:10.211Z,99232.59
2024-02-24T05:48:12.698Z,99243.59
2024-02-24T05:51:14.953Z,99245.91
2024-02-24T05:54:17.331Z,99259.38
2024-02-24T05:57:19.412Z,99268.16
2024-02-24T06:00:21.997Z,99284.81
2024-02-24T06:03:24.490Z,99288.56
2024-02-24T06:06:26.765Z,99295.66
2024-02-24T06:09:29.246Z,99289.53
2024-02-24T06:12:31.381Z,99291.41
2024-02-24T06:15:34.058Z,99302.31
2024-02-24T06:18:36.242Z,99307.00
2024-02-24T06:21:38.934Z,99303.81
2024-02-24T06:24:42.175Z,99305.59
2024-02-24T06:27:44.697Z,99313.84
2024-02-24T06:30:47.010Z,99326.09
2024-02-24T06:33:49.489Z,99329.66
2024-02-24T06:36:51.686Z,99330.09
2024-02-24T06:39:54.140Z,99338.66
2024-02-24T06:42:56.370Z,99327.88
2024-02-24T06:45:59.711Z,99351.91
2024-02-24T06:49:02.044Z,99352.81
2024-02-24T06:52:05.168Z,99356.41
2024-02-24T06:55:07.471Z,99356.09
2024-02-24T06:58:09.901Z,99358.66
2024-02-24T07:01:12.528Z,99365.88
2024-02-24T07:04:16.031Z,99363.81
2024-02-24T07:07:18.263Z,99374.00
2024-02-24T07:10:20.637Z,99360.34
2024-02-24T07:13:23.428Z,99370.00
2024-02-24T07:16:25.940Z,99385.09
2024-02-24T07:19:28.485Z,99398.69
2024-02-24T07:22:30.930Z,99389.88
2024-02-24T07:25:33.088Z,99404.72
2024-02-24T07:28:35.504Z,99399.47
2024-02-24T07:31:38.279Z,99396.44
2024-02-24T07:34:40.787Z,99411.38
2024-02-24T07:37:42.966Z,99421.94
2024-02-24T07:40:45.385Z,99423.97
2024-02-24T07:43:47.489Z,99421.13
2024-02-24T07:46:49.914Z,99431.34
2024-02-24T07:49:52.165Z,99433.47
2024-02-24T07:52:54.688Z,99438.25
2024-02-24T07:55:56.758Z,99440.62
2024-02-24T07:58:59.148Z,99455.22
2024-02-24T08:02:02.689Z,99459.81
2024-02-24T08:05:05.657Z,99463.84
2024-02-24T08:08:07.911Z,99466.81
2024-02-24T08:11:10.377Z,99479.31
2024-02-24T08:14:12.911Z,99469.41
2024-02-24T08:17:15.419Z,99470.06
2024-02-24T08:20:17.584Z,99469.28
2024-02-24T08:23:20.107Z,99481.56
2024-02-24T08:26:22.389Z,99482.31
2024-02-24T08:29:25.654Z,99475.47
2024-02-24T08:32:27.823Z,99478.78
2024-02-24T08:35:30.441Z,99476.31
2024-02-24T08:38:33.384Z,99473.91
2024-02-24T08:41:38.003Z,99481.38
2024-02-24T08:44:40.696Z,99499.34
2024-02-24T08:47:43.241Z,99512.25
2024-02-24T08:50:45.410Z,99505.37
2024-02-24T08:53:48.995Z,99506.91
2024-02-24T08:56:51.657Z,99506.09
2024-02-24T08:59:54.091Z,99513.44
2024-02-24T09:02:56.545Z,99514.69
2024-02-24T09:05:59.802Z,99514.66
2024-02-24T09:09:02.088Z,99529.47
2024-02-24T09:12:04.606Z,99517.81
2024-02-24T09:15:07.479Z,99533.16
2024-02-24T09:18:09.987Z,99538.69
2024-02-24T09:21:13.348Z,99535.81
2024-02-24T09:24:15.951Z,99542.00
2024-02-24T09:27:18.198Z,99547.31
2024-02-24T09:30:20.584Z,99550.56
2024-02-24T09:33:23.170Z,99552.13
2024-02-24T09:36:25.876Z,99558.03
2024-02-24T09:39:27.979Z,99557.00
2024-02-24T09:42:30.419Z,99569.22
2024-02-24T09:45:45.269Z,99564.72
2024-02-24T09:48:48.340Z,99559.16
2024-02-24T09:51:50.574Z,99577.34
2024-02-24T09:54:53.027Z,99582.72
2024-02-24T09:57:56.568Z,99599.44
2024-02-24T10:00:59.030Z,99603.34
2024-02-24T10:04:01.805Z,99609.28
2024-02-24T10:07:04.147Z,99611.63
2024-02-24T10:10:07.987Z,99621.69
2024-02-24T10:13:10.208Z,99619.81
2024-02-24T10:16:12.668Z,99621.38
2024-02-24T10:19:14.886Z,99622.75
2024-02-24T10:22:18.682Z,99613.81
2024-02-24T10:25:21.400Z,99614.69
2024-02-24T10:28:23.937Z,99623.91
2024-02-24T10:31:28.445Z,99623.12
2024-02-24T10:34:31.039Z,99616.44
2024-02-24T10:37:49.432Z,99619.28
2024-02-24T10:41:00.558Z,99614.88
2024-02-24T10:44:10.656Z,99629.09
2024-02-24T10:47:21.182Z,99633.91
2024-02-24T10:50:23.581Z,99636.94
2024-02-24T10:53:31.428Z,99625.13
2024-02-24T10:56:34.018Z,99622.34
2024-02-24T10:59:36.748Z,99631.91
2024-02-24T11:02:39.382Z,99628.72
2024-02-24T11:05:46.623Z,99629.84
2024-02-24T11:08:51.683Z,99632.19
2024-02-24T11:12:02.200Z,99626.91
2024-02-24T11:15:05.520Z,99630.72
2024-02-24T11:18:08.698Z,99626.78
2024-02-24T11:21:10.852Z,99622.69
2024-02-24T11:24:20.620Z,99625.88
2024-02-24T11:27:28.382Z,99626.59
2024-02-24T11:30:40.223Z,99633.13
2024-02-24T11:33:42.539Z,99629.06
2024-02-24T11:36:45.672Z,99628.94
2024-02-24T11:39:49.203Z,99626.78
2024-02-24T11:42:52.641Z,99630.72
2024-02-24T11:45:54.850Z,99624.75
2024-02-24T11:48:57.489Z,99625.28
2024-02-24T11:51:59.815Z,99627.69
2024-02-24T11:55:02.295Z,99639.41
2024-02-24T11:58:09.336Z,99630.75
2024-02-24T12:01:15.326Z,99639.84
2024-02-24T12:04:28.387Z,99643.59
2024-02-24T12:07:30.781Z,99657.75
2024-02-24T12:10:39.972Z,99652.91
2024-02-24T12:13:42.138Z,99652.16
2024-02-24T12:16:44.533Z,99650.78
2024-02-24T12:19:46.789Z,99649.28
2024-02-24T12:22:49.242Z,99654.06
2024-02-24T12:25:51.409Z,99651.53
2024-02-24T12:28:54.094Z,99651.75
2024-02-24T12:31:57.065Z,99662.72
2024-02-24T12:35:06.960Z,99662.66
2024-02-24T12:38:16.842Z,99661.41
2024-02-24T12:41:19.504Z,99660.78
2024-02-24T12:44:21.782Z,99661.69
2024-02-24T12:47:24.236Z,99662.91
2024-02-24T12:50:26.783Z,99667.63
2024-02-24T12:53:29.745Z,99675.06
2024-02-24T12:56:32.121Z,99667.94
2024-02-24T12:59:34.627Z,99678.22
2024-02-24T13:02:37.054Z,99675.50
2024-02-24T13:05:39.637Z,99677.53
2024-02-24T13:08:42.125Z,99684.03
2024-02-24T13:11:44.607Z,99676.41
2024-02-24T13:14:48.421Z,99684.78
2024-02-24T13:17:51.075Z,99680.44
2024-02-24T13:20:53.328Z,99681.78
2024-02-24T13:23:55.844Z,99679.16
2024-02-24T13:26:58.106Z,99684.66
2024-02-24T13:30:00.657Z,99680.06
2024-02-24T13:33:03.061Z,99684.66
2024-02-24T13:36:05.869Z,99690.56
2024-02-24T13:39:08.071Z,99683.81
2024-02-24T13:42:10.506Z,99691.66
2024-02-24T13:45:12.769Z,99690.91
2024-02-24T13:48:15.281Z,99691.72
2024-02-24T13:51:17.453Z,99689.37
2024-02-24T13:54:19.801Z,99691.66
2024-02-24T13:57:21.890Z,99700.84
2024-02-24T14:00:24.358Z,99697.66
2024-02-24T14:03:26.829Z,99693.28
2024-02-24T14:06:29.167Z,99694.50
2024-02-24T14:09:31.801Z,99694.13
2024-02-24T14:12:34.071Z,99694.81
2024-02-24T14:15:36.607Z,99700.41
2024-02-24T14:18:38.989Z,99698.81
2024-02-24T14:21:41.598Z,99707.00
2024-02-24T14:24:43.664Z,99711.44
2024-02-24T14:27:46.082Z,99705.81
2024-02-24T14:30:48.207Z,99711.50
2024-02-24T14:33:50.811Z,99711.03
2024-02-24T14:36:55.339Z,99711.34
2024-02-24T14:39:58.382Z,99715.84
2024-02-24T14:43:01.643Z,99705.88
2024-02-24T14:46:04.281Z,99708.56
2024-02-24T14:49:06.539Z,99704.25
2024-02-24T14:52:10.490Z,99707.28
2024-02-24T14:55:13.165Z,99707.28
2024-02-24T14:58:15.655Z,99718.34
2024-02-24T15:01:17.819Z,99711.53
2024-02-24T15:04:24.924Z,99724.50
2024-02-24T15:07:27.275Z,99722.94
2024-02-24T15:10:29.681Z,99731.59
2024-02-24T15:13:32.970Z,99725.13
2024-02-24T15:16:37.477Z,99729.47
2024-02-24T15:19:41.726Z,99715.97
2024-02-24T15:22:44.385Z,99714.72
2024-02-24T15:25:47.884Z,99725.00
2024-02-24T15:28:50.696Z,99731.25
2024-02-24T15:31:53.689Z,99732.06
2024-02-24T15:34:56.353Z,99729.53
2024-02-24T15:37:59.571Z,99735.06
2024-02-24T15:41:01.985Z,99737.41
2024-02-24T15:44:05.656Z,99742.09
2024-02-24T15:47:08.028Z,99741.22
2024-02-24T15:50:10.812Z,99746.62
2024-02-24T15:53:14.163Z,99748.16
2024-02-24T15:56:16.724Z,99752.81
2024-02-24T15:59:19.859Z,99753.53
2024-02-24T16:02:21.988Z,99753.41
2024-02-24T16:05:24.375Z,99761.91
2024-02-24T16:08:28.111Z,99768.16
2024-02-24T16:11:30.630Z,99760.19
2024-02-24T16:14:33.124Z,99776.25
2024-02-24T16:17:35.758Z,99781.69
2024-02-24T16:20:38.481Z,99787.13
2024-02-24T16:23:40.935Z,99785.16
2024-02-24T16:26:43.117Z,99783.84
2024-02-24T16:29:45.496Z,99790.03
2024-02-24T16:32:48.180Z,99792.00
2024-02-24T16:35:50.776Z,99793.88
2024-02-24T16:38:56.306Z,99810.91
2024-02-24T16:41:58.971Z,99808.56
2024-02-24T16:45:03.516Z,99815.53
2024-02-24T16:48:06.270Z,99815.44
2024-02-24T16:51:08.584Z,99827.97
2024-02-24T16:54:11.029Z,99822.47
2024-02-24T16:57:14.221Z,99826.69
2024-02-24T17:00:18.241Z,99820.41
2024-02-24T17:03:20.545Z,99830.16
2024-02-24T17:06:23.144Z,99830.88
2024-02-24T17:09:25.431Z,99831.69
2024-02-24T17:12:27.999Z,99834.78
2024-02-24T17:15:30.212Z,99840.31
2024-02-24T17:18:36.871Z,99844.25
2024-02-24T17:21:39.536Z,99843.44
2024-02-24T17:24:43.556Z,99850.47
2024-02-24T17:27:49.108Z,99860.72
2024-02-24T17:30:51.980Z,99853.25
2024-02-24T17:33:54.194Z,99859.47
2024-02-24T17:36:56.646Z,99867.06
2024-02-24T17:39:58.843Z,99867.75
2024-02-24T17:43:01.454Z,99876.38
2024-02-24T17:46:03.829Z,99871.22
2024-02-24T17:49:06.513Z,99875.84
2024-02-24T17:52:08.687Z,99868.28
2024-02-24T17:55:11.517Z,99863.47
2024-02-24T17:58:14.363Z,99861.78
2024-02-24T18:01:17.035Z,99863.31
2024-02-24T18:04:20.744Z,99871.69
2024-02-24T18:07:23.955Z,99874.06
2024-02-24T18:10:26.671Z,99884.84
2024-02-24T18:13:28.860Z,99877.28
2024-02-24T18:16:31.327Z,99874.34
2024-02-24T18:19:33.501Z,99879.69
2024-02-24T18:22:36.082Z,99877.38
2024-02-24T18:25:38.174Z,99870.87
2024-02-24T18:28:41.002Z,99875.16
2024-02-24T18:31:43.254Z,99877.00
2024-02-24T18:34:45.731Z,99876.28
2024-02-24T18:37:47.918Z,99885.53
2024-02-24T18:40:50.319Z,99885.88
2024-02-24T18:43:52.419Z,99878.34
2024-02-24T18:46:54.821Z,99881.44
2024-02-24T18:49:58.290Z,99875.81
2024-02-24T18:53:00.737Z,99879.75
2024-02-24T18:56:02.861Z,99879.63
2024-02-24T18:59:06.515Z,99879.63
2024-02-24T19:02:11.029Z,99896.44
2024-02-24T19:05:13.490Z,99902.84
2024-02-24T19:08:15.961Z,99894.94
2024-02-24T19:11:18.358Z,99896.00
2024-02-24T19:14:21.014Z,99910.75
2024-02-24T19:17:23.488Z,99902.47
2024-02-24T19:20:25.634Z,99905.94
2024-02-24T19:23:29.415Z,99898.38
2024-02-24T19:26:31.709Z,99901.81
2024-02-24T19:29:34.276Z,99904.84
2024-02-24T19:32:36.590Z,99913.09
2024-02-24T19:35:42.611Z,99906.34
2024-02-24T19:38:45.200Z,99907.63
2024-02-24T19:41:47.770Z,99909.22
2024-02-24T19:44:51.514Z,99922.53
2024-02-24T19:47:54.052Z,99924.84
2024-02-24T19:50:58.483Z,99925.66
2024-02-24T19:54:01.364Z,99924.28
2024-02-24T19:57:03.835Z,99926.72
2024-02-24T20:00:06.671Z,99925.47
2024-02-24T20:03:12.927Z,99925.78
2024-02-24T20:06:15.070Z,99923.34
2024-02-24T20:09:18.018Z,99917.97
2024-02-24T20:12:20.101Z,99915.00
2024-02-24T20:15:22.136Z,99923.97
2024-02-24T20:18:24.317Z,99919.56
2024-02-24T20:21:28.661Z,99909.16
2024-02-24T20:24:30.568Z,99909.16
2024-02-24T20:27:32.487Z,99923.25
2024-02-24T20:30:34.520Z,99919.25
2024-02-24T20:33:36.538Z,99923.38
2024-02-24T20:36:38.504Z,99920.88
2024-02-24T20:39:40.444Z,99926.75
2024-02-24T20:42:42.393Z,99921.94
2024-02-24T20:45:44.329Z,99928.59
2024-02-24T20:48:46.477Z,99924.69
2024-02-24T20:51:50.503Z,99922.28
2024-02-24T20:54:54.793Z,99924.59
2024-02-24T20:57:56.763Z,99918.28
2024-02-24T21:00:58.843Z,99915.50
2024-02-24T21:04:00.840Z,99917.94
2024-02-24T21:07:03.453Z,99933.66
2024-02-24T21:10:05.593Z,99932.03
2024-02-24T21:13:07.525Z,99935.94
2024-02-24T21:16:09.616Z,99932.03
2024-02-24T21:19:11.611Z,99943.72
2024-02-24T21:22:14.096Z,99955.22
2024-02-24T21:25:16.082Z,99956.13
2024-02-24T21:28:18.300Z,99959.75
2024-02-24T21:31:20.321Z,99952.00
2024-02-24T21:34:23.364Z,99957.13
2024-02-24T21:37:31.738Z,99964.50
2024-02-24T21:40:33.783Z,99964.81
2024-02-24T21:43:35.724Z,99973.44
2024-02-24T21:46:37.644Z,99968.59
2024-02-24T21:49:39.857Z,99967.34
2024-02-24T21:52:41.843Z,99961.47
2024-02-24T21:55:43.733Z,99967.34
2024-02-24T21:58:45.687Z,99967.34
2024-02-24T22:01:47.588Z,99974.44
2024-02-24T22:04:51.378Z,99966.19
2024-02-24T22:07:53.978Z,99963.31
2024-02-24T22:10:56.598Z,99959.31
2024-02-24T22:13:59.150Z,99950.69
2024-02-24T22:17:01.589Z,99946.81
2024-02-24T22:20:04.066Z,99951.72
2024-02-24T22:23:06.554Z,99959.06
2024-02-24T22:26:08.621Z,99966.41
2024-02-24T22:29:11.372Z,99961.22
2024-02-24T22:32:13.665Z,99957.88
2024-02-24T22:35:16.646Z,99964.19
2024-02-24T22:38:18.781Z,99964.41
2024-02-24T22:41:22.446Z,99970.97
2024-02-24T22:44:24.719Z,99963.37
2024-02-24T22:47:27.243Z,99959.38
2024-02-24T22:50:30.665Z,99961.78
2024-02-24T22:53:33.256Z,99962.34
2024-02-24T22:56:36.040Z,99954.22
2024-02-24T22:59:38.800Z,99952.28
2024-02-24T23:02:41.159Z,99949.84
2024-02-24T23:05:43.624Z,99952.38
2024-02-24T23:08:46.557Z,99946.19
2024-02-24T23:11:49.232Z,99940.09
2024-02-24T23:14:51.577Z,99943.66
2024-02-24T23:17:56.743Z,99942.72
2024-02-24T23:20:59.102Z,99952.59
2024-02-24T23:24:03.463Z,99954.87
2024-02-24T23:27:06.460Z,99955.78
2024-02-24T23:30:09.326Z,99962.87
2024-02-24T23:33:11.629Z,99963.53
2024-02-24T23:36:14.240Z,99956.59
2024-02-24T23:39:16.466Z,99962.28
2024-02-24T23:42:19.594Z,99956.19
2024-02-24T23:45:22.068Z,99954.59
2024-02-24T23:48:24.584Z,99949.09
2024-02-24T23:51:27.075Z,99945.88
2024-02-24T23:54:29.465Z,99956.88
2024-02-24T23:57:33.892Z,99961.56
